TAMU Turf Lab's Hourly Summary for Tuesday, July 10, 2018
Hour Temp
(f)
RH
(%)
Solar Rad.
(MJ/m2)
Rainfall
(in)
Wind
(mph)
7/10/2018 12:00 AM 75 90 0 0 2.36
7/10/2018 1:00 AM 74 90 0 0 0.82
7/10/2018 2:00 AM 74 91 0 0 2.77
7/10/2018 3:00 AM 74 91 0 0 1.78
7/10/2018 4:00 AM 73 92 0 0 1.27
7/10/2018 5:00 AM 73 92 0 0 0.78
7/10/2018 6:00 AM 73 92 0 0 1.25
7/10/2018 7:00 AM 73 92 0.02 0 0.78
7/10/2018 8:00 AM 73 91 0.25 0 0
7/10/2018 9:00 AM 75 88 0.83 0 2.49
7/10/2018 10:00 AM 78 79 1.31 0 4.17
7/10/2018 11:00 AM 80 70 2.21 0 5.28
7/10/2018 12:00 PM 83 60 2.53 0 4.01
7/10/2018 1:00 PM 84 57 2.62 0 4.48
7/10/2018 2:00 PM 87 53 2.63 0 4.47
7/10/2018 3:00 PM 88 49 2.37 0 5.21
7/10/2018 4:00 PM 89 45 2.36 0 4.98
7/10/2018 5:00 PM 89 45 1.51 0 6.24
7/10/2018 6:00 PM 89 48 1.33 0 6.13
7/10/2018 7:00 PM 89 49 1.16 0 6.26
7/10/2018 8:00 PM 87 51 0.48 0 3.75
7/10/2018 9:00 PM 84 56 0.02 0 1.82
7/10/2018 10:00 PM 83 60 0 0 1.58
7/10/2018 11:00 PM 81 59 0 0 2.45
Data Summary 80 70 21.63 0.00 3.13